Terminal Aerodrome Forecast
Issued by NWS

Home | Current Version | Previous Version | Text Only | Print | Product List | Glossary On
Versions: 1 2 3 4 5 6 7 8 9 10 11 12
000
FTUS44 KCRP 211100
TAFLRD
TAF
KLRD 211136Z 2112/2212 14017KT P6SM FEW030
     FM220100 14019G25KT P6SM SKC
     FM220800 16013KT P6SM SKC=

USA.gov is the U.S. government's official web portal to all federal, state and local government web resources and services.